createdAt,value
2017-05-20T00:00:33.690Z,0
2017-05-20T00:01:14.214Z,0
2017-05-20T00:01:54.904Z,0
2017-05-20T00:02:35.490Z,0
2017-05-20T00:03:16.071Z,0
2017-05-20T00:03:56.605Z,0
2017-05-20T00:04:37.218Z,0
2017-05-20T00:05:17.890Z,0
2017-05-20T00:05:58.488Z,0
2017-05-20T00:06:39.239Z,0
2017-05-20T00:07:19.937Z,0
2017-05-20T00:08:00.472Z,0
2017-05-20T00:08:40.990Z,0
2017-05-20T00:09:23.529Z,0
2017-05-20T00:10:04.122Z,0
2017-05-20T00:10:44.634Z,0
2017-05-20T00:11:25.223Z,0
2017-05-20T00:12:05.833Z,0
2017-05-20T00:12:46.426Z,0
2017-05-20T00:13:26.937Z,0
2017-05-20T00:14:07.542Z,0
2017-05-20T00:14:48.144Z,0
2017-05-20T00:15:28.705Z,0
2017-05-20T00:16:09.237Z,0
2017-05-20T00:16:49.795Z,0
2017-05-20T00:17:30.432Z,0
2017-05-20T00:18:10.994Z,0
2017-05-20T00:18:51.586Z,0
2017-05-20T00:19:32.200Z,0
2017-05-20T00:20:12.748Z,0
2017-05-20T00:20:53.327Z,0
2017-05-20T00:21:33.873Z,0
2017-05-20T00:22:14.436Z,0
2017-05-20T00:22:54.978Z,0
2017-05-20T00:23:35.526Z,0
2017-05-20T00:24:16.093Z,0
2017-05-20T00:24:56.601Z,0
2017-05-20T00:25:37.180Z,0
2017-05-20T00:26:17.725Z,0
2017-05-20T00:26:58.271Z,0
2017-05-20T00:27:38.824Z,0
2017-05-20T00:28:19.393Z,0
2017-05-20T00:28:59.951Z,0
2017-05-20T00:29:40.480Z,0
2017-05-20T00:30:22.105Z,0
2017-05-20T00:31:02.605Z,0
2017-05-20T00:31:43.282Z,0
2017-05-20T00:32:23.812Z,0
2017-05-20T00:33:05.434Z,0
2017-05-20T00:33:45.943Z,0
2017-05-20T00:34:27.570Z,0
2017-05-20T00:35:08.164Z,0
2017-05-20T00:35:48.731Z,0
2017-05-20T00:36:29.312Z,0
2017-05-20T00:37:09.822Z,0
2017-05-20T00:37:50.367Z,0
2017-05-20T00:38:30.893Z,0
2017-05-20T00:39:11.523Z,0
2017-05-20T00:39:52.119Z,0
2017-05-20T00:40:32.661Z,0
2017-05-20T00:41:13.206Z,0
2017-05-20T00:41:53.765Z,0
2017-05-20T00:42:34.309Z,0
2017-05-20T00:43:16.941Z,0
2017-05-20T00:43:58.508Z,0
2017-05-20T00:44:39.058Z,0
2017-05-20T00:45:19.670Z,0
2017-05-20T00:46:00.207Z,0
2017-05-20T00:46:40.724Z,0
2017-05-20T00:47:21.346Z,0
2017-05-20T00:48:01.953Z,0
2017-05-20T00:48:42.538Z,0
2017-05-20T00:49:23.079Z,0
2017-05-20T00:50:08.589Z,0
2017-05-20T00:50:49.206Z,0
2017-05-20T00:51:30.771Z,0
2017-05-20T00:52:12.344Z,0
2017-05-20T00:52:57.937Z,0
2017-05-20T00:53:39.491Z,0
2017-05-20T00:54:20.070Z,0
2017-05-20T00:55:00.714Z,0
2017-05-20T00:55:41.266Z,0
2017-05-20T00:56:21.808Z,0
2017-05-20T00:57:02.371Z,0
2017-05-20T00:57:43.930Z,0
2017-05-20T00:58:24.491Z,0
2017-05-20T00:59:06.040Z,0
2017-05-20T00:59:46.612Z,0
2017-05-20T01:00:27.161Z,0
2017-05-20T01:01:08.714Z,0
2017-05-20T01:01:50.336Z,0
2017-05-20T01:02:30.865Z,0
2017-05-20T01:03:11.380Z,0
2017-05-20T01:03:57.897Z,0
2017-05-20T01:04:38.433Z,0
2017-05-20T01:05:20.992Z,0
2017-05-20T01:06:02.620Z,0
2017-05-20T01:06:48.240Z,0
2017-05-20T01:07:28.755Z,0
2017-05-20T01:08:09.375Z,0
2017-05-20T01:08:50.976Z,0
2017-05-20T01:09:31.505Z,0
2017-05-20T01:10:14.081Z,0
2017-05-20T01:10:54.674Z,0
2017-05-20T01:11:41.875Z,0
2017-05-20T01:12:22.436Z,0
2017-05-20T01:13:02.981Z,0
2017-05-20T01:13:43.539Z,0
2017-05-20T01:14:24.112Z,0
2017-05-20T01:15:06.717Z,0
2017-05-20T01:15:47.265Z,0
2017-05-20T01:16:27.826Z,0
2017-05-20T01:17:13.390Z,0
2017-05-20T01:17:58.856Z,0
2017-05-20T01:18:40.435Z,0
2017-05-20T01:19:21.074Z,0
2017-05-20T01:20:01.633Z,0
2017-05-20T01:20:42.180Z,0
2017-05-20T01:21:23.772Z,0
2017-05-20T01:22:14.845Z,0
2017-05-20T01:23:08.404Z,0
2017-05-20T01:23:49.982Z,0
2017-05-20T01:24:32.582Z,0
2017-05-20T01:25:15.192Z,0
2017-05-20T01:25:56.820Z,0
2017-05-20T01:26:37.340Z,0
2017-05-20T01:27:19.972Z,0
2017-05-20T01:28:06.394Z,0
2017-05-20T01:28:48.024Z,0
2017-05-20T01:29:28.543Z,0
2017-05-20T01:30:11.168Z,0
2017-05-20T01:30:52.751Z,0
2017-05-20T01:31:34.329Z,0
2017-05-20T01:32:15.878Z,0
2017-05-20T01:32:56.477Z,0
2017-05-20T01:33:39.053Z,0
2017-05-20T01:34:19.635Z,0
2017-05-20T01:35:00.261Z,0
2017-05-20T01:35:45.632Z,0
2017-05-20T01:36:26.298Z,0
2017-05-20T01:37:06.926Z,0
2017-05-20T01:37:47.467Z,0
2017-05-20T01:38:30.076Z,0
2017-05-20T01:39:10.653Z,0
2017-05-20T01:39:53.205Z,0
2017-05-20T01:40:38.429Z,0
2017-05-20T01:41:30.856Z,0
2017-05-20T01:42:17.447Z,0
2017-05-20T01:43:00.051Z,0
2017-05-20T01:43:40.604Z,0
2017-05-20T01:44:22.168Z,0
2017-05-20T01:45:04.777Z,0
2017-05-20T01:45:46.391Z,0
2017-05-20T01:46:26.914Z,0
2017-05-20T01:47:13.142Z,0
2017-05-20T01:47:54.774Z,0
2017-05-20T01:48:35.348Z,0
2017-05-20T01:49:15.846Z,0
2017-05-20T01:49:57.369Z,0
2017-05-20T01:50:38.907Z,0
2017-05-20T01:51:20.438Z,0
2017-05-20T01:52:01.023Z,0
2017-05-20T01:52:43.607Z,0
2017-05-20T01:53:24.191Z,0
2017-05-20T01:54:04.805Z,0
2017-05-20T01:54:45.352Z,0
2017-05-20T01:55:25.943Z,0
2017-05-20T01:56:06.451Z,0
2017-05-20T01:56:53.608Z,0
2017-05-20T01:57:38.912Z,0
2017-05-20T01:58:19.513Z,0
2017-05-20T01:59:00.041Z,0
2017-05-20T01:59:42.035Z,0
2017-05-20T02:00:28.382Z,0
2017-05-20T02:01:10.982Z,0
2017-05-20T02:01:57.371Z,0
2017-05-20T02:02:37.928Z,0
2017-05-20T02:03:20.516Z,0
2017-05-20T02:04:03.135Z,0
2017-05-20T02:04:44.752Z,0
2017-05-20T02:05:25.348Z,0
2017-05-20T02:06:06.933Z,0
2017-05-20T02:06:47.486Z,0
2017-05-20T02:07:29.041Z,0
2017-05-20T02:08:10.627Z,0
2017-05-20T02:08:51.176Z,0
2017-05-20T02:09:31.746Z,0
2017-05-20T02:10:12.276Z,0
2017-05-20T02:10:52.820Z,0
2017-05-20T02:11:33.389Z,0
2017-05-20T02:12:14.967Z,0
2017-05-20T02:12:56.520Z,0
2017-05-20T02:13:37.079Z,0
2017-05-20T02:14:25.404Z,0
2017-05-20T02:15:07.212Z,0
2017-05-20T02:15:53.723Z,0
2017-05-20T02:16:34.281Z,0
2017-05-20T02:17:15.852Z,0
2017-05-20T02:17:57.497Z,0
2017-05-20T02:18:42.693Z,0
2017-05-20T02:19:23.211Z,0
2017-05-20T02:20:03.815Z,0
2017-05-20T02:20:44.407Z,0
2017-05-20T02:21:29.870Z,0
2017-05-20T02:22:10.412Z,0
2017-05-20T02:22:50.975Z,0
2017-05-20T02:23:31.527Z,0
2017-05-20T02:24:12.075Z,0
2017-05-20T02:24:52.626Z,0
2017-05-20T02:25:33.209Z,0
2017-05-20T02:26:13.805Z,0
2017-05-20T02:26:54.344Z,0
2017-05-20T02:27:35.956Z,0
2017-05-20T02:28:18.489Z,0
2017-05-20T02:28:58.993Z,0
2017-05-20T02:29:41.567Z,0
2017-05-20T02:30:22.147Z,0
2017-05-20T02:31:02.671Z,0
2017-05-20T02:31:45.251Z,0
2017-05-20T02:32:27.899Z,0
2017-05-20T02:33:08.436Z,0
2017-05-20T02:33:49.973Z,0
2017-05-20T02:34:35.385Z,0
2017-05-20T02:35:15.891Z,0
2017-05-20T02:35:57.463Z,0
2017-05-20T02:36:42.857Z,0
2017-05-20T02:37:24.484Z,0
2017-05-20T02:38:05.004Z,0
2017-05-20T02:38:46.632Z,0
2017-05-20T02:39:28.246Z,0
2017-05-20T02:40:09.868Z,0
2017-05-20T02:40:52.468Z,0
2017-05-20T02:41:33.015Z,0
2017-05-20T02:42:13.568Z,0
2017-05-20T02:42:56.162Z,0
2017-05-20T02:43:36.706Z,0
2017-05-20T02:44:17.264Z,0
2017-05-20T02:45:02.732Z,0
2017-05-20T02:45:43.279Z,0
2017-05-20T02:46:23.833Z,0
2017-05-20T02:47:04.385Z,0
2017-05-20T02:47:46.976Z,0
2017-05-20T02:48:27.530Z,0
2017-05-20T02:49:08.082Z,0
2017-05-20T02:49:59.183Z,0
2017-05-20T02:50:39.691Z,0
2017-05-20T02:51:20.235Z,0
2017-05-20T02:52:00.747Z,0
2017-05-20T02:52:42.362Z,0
2017-05-20T02:53:22.869Z,0
2017-05-20T02:54:03.386Z,0
2017-05-20T02:54:44.023Z,0
2017-05-20T02:55:24.625Z,0
2017-05-20T02:56:05.256Z,0
2017-05-20T02:56:47.871Z,0
2017-05-20T02:57:28.404Z,0
2017-05-20T02:58:08.958Z,0
2017-05-20T02:58:50.553Z,0
2017-05-20T02:59:31.099Z,0
2017-05-20T03:00:11.631Z,0
2017-05-20T03:00:52.153Z,0
2017-05-20T03:01:32.719Z,0
2017-05-20T03:02:13.291Z,0
2017-05-20T03:02:53.805Z,0
2017-05-20T03:03:34.303Z,0
2017-05-20T03:04:15.879Z,0
2017-05-20T03:04:56.426Z,0
2017-05-20T03:05:37.002Z,0
2017-05-20T03:06:17.631Z,0
2017-05-20T03:06:58.185Z,0
2017-05-20T03:07:38.808Z,0
2017-05-20T03:08:19.389Z,0
2017-05-20T03:08:59.938Z,0
2017-05-20T03:09:40.500Z,0
2017-05-20T03:10:21.035Z,0
2017-05-20T03:11:01.584Z,0
2017-05-20T03:11:42.136Z,0
2017-05-20T03:12:22.669Z,0
2017-05-20T03:13:03.246Z,0
2017-05-20T03:13:43.784Z,0
2017-05-20T03:14:24.444Z,0
2017-05-20T03:15:05.000Z,0
2017-05-20T03:15:45.512Z,0
2017-05-20T03:16:27.070Z,0
2017-05-20T03:17:07.663Z,0
2017-05-20T03:17:48.181Z,0
2017-05-20T03:18:28.755Z,0
2017-05-20T03:19:09.321Z,0
2017-05-20T03:19:49.867Z,0
2017-05-20T03:20:30.467Z,0
2017-05-20T03:21:11.072Z,0
2017-05-20T03:21:51.619Z,0
2017-05-20T03:22:32.176Z,0
2017-05-20T03:23:13.749Z,0
2017-05-20T03:23:54.300Z,0
2017-05-20T03:24:34.839Z,0
2017-05-20T03:25:15.398Z,0
2017-05-20T03:25:55.987Z,0
2017-05-20T03:26:36.498Z,0
2017-05-20T03:27:17.152Z,0
2017-05-20T03:27:57.708Z,0
2017-05-20T03:28:38.292Z,0
2017-05-20T03:29:18.811Z,0
2017-05-20T03:29:59.394Z,5
2017-05-20T03:30:40.010Z,5
2017-05-20T03:31:20.559Z,5
2017-05-20T03:32:01.114Z,5
2017-05-20T03:32:41.659Z,5
2017-05-20T03:33:22.208Z,5
2017-05-20T03:34:02.761Z,5
2017-05-20T03:34:43.417Z,5
2017-05-20T03:35:23.966Z,5
2017-05-20T03:36:04.481Z,5
2017-05-20T03:36:45.019Z,5
2017-05-20T03:37:25.644Z,5
2017-05-20T03:38:06.170Z,5
2017-05-20T03:38:46.780Z,5
2017-05-20T03:39:27.367Z,5
2017-05-20T03:40:07.891Z,5
2017-05-20T03:40:48.512Z,10
2017-05-20T03:41:29.127Z,10
2017-05-20T03:42:09.712Z,10
2017-05-20T03:42:50.227Z,10
2017-05-20T03:43:30.839Z,10
2017-05-20T03:44:11.428Z,10
2017-05-20T03:44:52.018Z,10
2017-05-20T03:45:32.530Z,10
2017-05-20T03:46:13.148Z,10
2017-05-20T03:46:53.732Z,15
2017-05-20T03:47:35.352Z,15
2017-05-20T03:48:15.898Z,15
2017-05-20T03:48:56.473Z,15
2017-05-20T03:49:37.080Z,15
2017-05-20T03:50:17.654Z,15
2017-05-20T03:50:58.178Z,15
2017-05-20T03:51:38.765Z,15
2017-05-20T03:52:19.317Z,20
2017-05-20T03:52:59.871Z,20
2017-05-20T03:53:40.420Z,20
2017-05-20T03:54:20.960Z,20
2017-05-20T03:55:01.533Z,20
2017-05-20T03:55:42.082Z,20
2017-05-20T03:56:22.685Z,20
2017-05-20T03:57:03.255Z,20
2017-05-20T03:57:43.815Z,25
2017-05-20T03:58:24.384Z,25
2017-05-20T03:59:04.975Z,25
2017-05-20T03:59:46.593Z,25
2017-05-20T04:00:27.142Z,25
2017-05-20T04:01:07.701Z,25
2017-05-20T04:01:48.307Z,25
2017-05-20T04:02:28.895Z,25
2017-05-20T04:03:09.404Z,30
2017-05-20T04:03:51.954Z,30
2017-05-20T04:04:32.549Z,30
2017-05-20T04:05:13.154Z,30
2017-05-20T04:05:53.732Z,30
2017-05-20T04:06:34.313Z,30
2017-05-20T04:07:14.859Z,35
2017-05-20T04:07:55.501Z,35
2017-05-20T04:08:36.050Z,35
2017-05-20T04:09:16.562Z,35
2017-05-20T04:09:57.165Z,35
2017-05-20T04:10:37.697Z,35
2017-05-20T04:11:18.315Z,35
2017-05-20T04:11:58.913Z,40
2017-05-20T04:12:39.510Z,40
2017-05-20T04:13:20.040Z,40
2017-05-20T04:14:00.640Z,40
2017-05-20T04:14:42.265Z,40
2017-05-20T04:15:22.858Z,40
2017-05-20T04:16:03.500Z,40
2017-05-20T04:16:44.062Z,40
2017-05-20T04:17:24.652Z,45
2017-05-20T04:18:06.240Z,45
2017-05-20T04:18:46.792Z,45
2017-05-20T04:19:27.449Z,45
2017-05-20T04:20:08.086Z,45
2017-05-20T04:20:48.674Z,45
2017-05-20T04:21:29.198Z,45
2017-05-20T04:22:09.799Z,45
2017-05-20T04:22:50.392Z,45
2017-05-20T04:23:30.990Z,45
2017-05-20T04:24:11.551Z,45
2017-05-20T04:24:52.115Z,45
2017-05-20T04:25:32.704Z,45
2017-05-20T04:26:13.254Z,50
2017-05-20T04:26:53.873Z,50
2017-05-20T04:27:34.447Z,55
2017-05-20T04:28:14.992Z,55
2017-05-20T04:28:55.624Z,55
2017-05-20T04:29:36.219Z,55
2017-05-20T04:30:16.734Z,60
2017-05-20T04:30:57.378Z,60
2017-05-20T04:31:38.006Z,60
2017-05-20T04:32:19.610Z,60
2017-05-20T04:33:00.246Z,60
2017-05-20T04:33:40.896Z,60
2017-05-20T04:34:21.547Z,60
2017-05-20T04:35:02.152Z,60
2017-05-20T04:35:42.799Z,65
2017-05-20T04:36:23.403Z,65
2017-05-20T04:37:03.957Z,65
2017-05-20T04:37:44.498Z,65
2017-05-20T04:38:25.120Z,65
2017-05-20T04:39:05.702Z,65
2017-05-20T04:39:46.211Z,65
2017-05-20T04:40:26.818Z,70
2017-05-20T04:41:07.339Z,70
2017-05-20T04:41:47.917Z,70
2017-05-20T04:42:28.504Z,70
2017-05-20T04:43:10.144Z,70
2017-05-20T04:43:50.690Z,70
2017-05-20T04:44:31.338Z,75
2017-05-20T04:45:11.946Z,75
2017-05-20T04:45:53.564Z,75
2017-05-20T04:46:34.174Z,75
2017-05-20T04:47:14.718Z,75
2017-05-20T04:47:55.268Z,75
2017-05-20T04:48:35.826Z,80
2017-05-20T04:49:16.375Z,80
2017-05-20T04:49:56.915Z,80
2017-05-20T04:50:38.513Z,80
2017-05-20T04:51:19.059Z,80
2017-05-20T04:51:59.705Z,80
2017-05-20T04:52:40.343Z,80
2017-05-20T04:53:20.900Z,80
2017-05-20T04:54:01.471Z,85
2017-05-20T04:54:42.034Z,85
2017-05-20T04:55:23.575Z,85
2017-05-20T04:56:04.097Z,85
2017-05-20T04:56:44.732Z,85
2017-05-20T04:57:25.324Z,85
2017-05-20T04:58:05.837Z,85
2017-05-20T04:58:46.394Z,85
2017-05-20T04:59:26.991Z,85
2017-05-20T05:00:07.533Z,90
2017-05-20T05:00:48.151Z,90
2017-05-20T05:01:28.788Z,90
2017-05-20T05:02:09.333Z,90
2017-05-20T05:02:50.930Z,90
2017-05-20T05:03:32.915Z,95
2017-05-20T05:04:15.513Z,95
2017-05-20T05:04:56.054Z,95
2017-05-20T05:05:37.655Z,95
2017-05-20T05:06:19.247Z,95
2017-05-20T05:07:05.440Z,100
2017-05-20T05:07:45.979Z,100
2017-05-20T05:08:28.578Z,100
2017-05-20T05:09:13.937Z,100
2017-05-20T05:10:01.468Z,105
2017-05-20T05:10:43.027Z,105
2017-05-20T05:11:24.601Z,105
2017-05-20T05:12:06.175Z,105
2017-05-20T05:12:53.487Z,105
2017-05-20T05:13:36.083Z,105
2017-05-20T05:14:16.637Z,105
2017-05-20T05:14:59.231Z,105
2017-05-20T05:15:40.856Z,105
2017-05-20T05:16:21.402Z,105
2017-05-20T05:17:02.994Z,105
2017-05-20T05:17:48.401Z,110
2017-05-20T05:18:28.929Z,110
2017-05-20T05:19:09.575Z,110
2017-05-20T05:19:51.184Z,110
2017-05-20T05:20:31.756Z,110
2017-05-20T05:21:13.352Z,110
2017-05-20T05:21:54.878Z,110
2017-05-20T05:22:37.473Z,110
2017-05-20T05:23:18.057Z,110
2017-05-20T05:23:58.631Z,110
2017-05-20T05:24:39.181Z,110
2017-05-20T05:25:19.731Z,115
2017-05-20T05:26:00.297Z,115
2017-05-20T05:26:40.876Z,115
2017-05-20T05:27:21.469Z,110
2017-05-20T05:28:02.044Z,110
2017-05-20T05:28:42.557Z,110
2017-05-20T05:29:23.155Z,110
2017-05-20T05:30:03.756Z,110
2017-05-20T05:30:44.346Z,110
2017-05-20T05:31:24.962Z,110
2017-05-20T05:32:05.547Z,110
2017-05-20T05:32:46.206Z,110
2017-05-20T05:33:26.809Z,110
2017-05-20T05:34:07.395Z,115
2017-05-20T05:34:48.071Z,115
2017-05-20T05:35:28.669Z,115
2017-05-20T05:36:09.243Z,115
2017-05-20T05:36:49.863Z,115
2017-05-20T05:37:30.428Z,120
2017-05-20T05:38:10.952Z,120
2017-05-20T05:38:51.602Z,120
2017-05-20T05:39:32.212Z,120
2017-05-20T05:40:12.714Z,120
2017-05-20T05:40:53.308Z,120
2017-05-20T05:41:33.964Z,120
2017-05-20T05:42:15.577Z,120
2017-05-20T05:42:56.224Z,120
2017-05-20T05:43:36.808Z,120
2017-05-20T05:44:17.366Z,120
2017-05-20T05:44:58.030Z,120
2017-05-20T05:45:38.561Z,120
2017-05-20T05:46:19.162Z,120
2017-05-20T05:46:59.707Z,120
2017-05-20T05:47:40.269Z,120
2017-05-20T05:48:20.829Z,120
2017-05-20T05:49:02.460Z,125
2017-05-20T05:49:43.038Z,125
2017-05-20T05:50:23.586Z,130
2017-05-20T05:51:04.178Z,135
2017-05-20T05:51:44.750Z,135
2017-05-20T05:52:25.312Z,135
2017-05-20T05:53:06.870Z,135
2017-05-20T05:53:47.435Z,135
2017-05-20T05:54:28.076Z,130
2017-05-20T05:55:08.635Z,130
2017-05-20T05:55:49.278Z,130
2017-05-20T05:56:29.830Z,135
2017-05-20T05:57:10.394Z,140
2017-05-20T05:57:50.935Z,140
2017-05-20T05:58:31.521Z,135
2017-05-20T05:59:12.137Z,135
2017-05-20T05:59:52.683Z,135
2017-05-20T06:00:34.283Z,135
2017-05-20T06:01:14.854Z,135
2017-05-20T06:01:55.367Z,135
2017-05-20T06:02:35.994Z,145
2017-05-20T06:03:16.610Z,145
2017-05-20T06:03:57.144Z,150
2017-05-20T06:04:37.791Z,150
2017-05-20T06:05:18.325Z,155
2017-05-20T06:05:58.923Z,160
2017-05-20T06:06:39.463Z,160
2017-05-20T06:07:20.059Z,160
2017-05-20T06:08:00.742Z,160
2017-05-20T06:08:41.427Z,160
2017-05-20T06:09:21.984Z,165
2017-05-20T06:10:02.790Z,170
2017-05-20T06:10:43.340Z,170
2017-05-20T06:11:23.944Z,170
2017-05-20T06:12:04.484Z,175
2017-05-20T06:12:45.043Z,175
2017-05-20T06:13:25.671Z,185
2017-05-20T06:14:06.240Z,190
2017-05-20T06:14:47.205Z,190
2017-05-20T06:15:27.906Z,190
2017-05-20T06:16:08.464Z,190
2017-05-20T06:16:49.061Z,190
2017-05-20T06:17:29.570Z,190
2017-05-20T06:18:10.295Z,185
2017-05-20T06:18:50.905Z,180
2017-05-20T06:19:31.509Z,175
2017-05-20T06:20:12.112Z,170
2017-05-20T06:20:52.758Z,160
2017-05-20T06:21:33.332Z,155
2017-05-20T06:22:14.879Z,155
2017-05-20T06:22:55.430Z,150
2017-05-20T06:23:35.985Z,145
2017-05-20T06:24:16.665Z,145
2017-05-20T06:24:58.235Z,145
2017-05-20T06:25:38.914Z,145
2017-05-20T06:26:19.562Z,145
2017-05-20T06:27:00.102Z,145
2017-05-20T06:27:40.713Z,150
2017-05-20T06:28:21.299Z,150
2017-05-20T06:29:01.968Z,150
2017-05-20T06:29:42.518Z,155
2017-05-20T06:30:23.070Z,155
2017-05-20T06:31:03.623Z,160
2017-05-20T06:31:44.255Z,165
2017-05-20T06:32:24.805Z,170
2017-05-20T06:33:05.468Z,175
2017-05-20T06:33:46.017Z,180
2017-05-20T06:34:26.586Z,190
2017-05-20T06:35:07.252Z,195
2017-05-20T06:35:47.867Z,205
2017-05-20T06:36:28.419Z,215
2017-05-20T06:37:09.007Z,225
2017-05-20T06:37:49.634Z,235
2017-05-20T06:38:30.198Z,245
2017-05-20T06:39:10.843Z,240
2017-05-20T06:39:51.390Z,240
2017-05-20T06:40:31.954Z,240
2017-05-20T06:41:12.606Z,245
2017-05-20T06:41:53.246Z,255
2017-05-20T06:42:33.803Z,260
2017-05-20T06:43:14.348Z,255
2017-05-20T06:43:54.890Z,250
2017-05-20T06:44:35.440Z,250
2017-05-20T06:45:16.041Z,250
2017-05-20T06:45:56.549Z,250
2017-05-20T06:46:37.146Z,255
2017-05-20T06:47:17.769Z,255
2017-05-20T06:47:58.360Z,255
2017-05-20T06:48:38.876Z,250
2017-05-20T06:49:19.469Z,245
2017-05-20T06:50:00.086Z,235
2017-05-20T06:50:40.652Z,220
2017-05-20T06:51:21.213Z,210
2017-05-20T06:52:01.755Z,195
2017-05-20T06:52:42.409Z,185
2017-05-20T06:53:22.986Z,180
2017-05-20T06:54:03.571Z,175
2017-05-20T06:54:44.114Z,170
2017-05-20T06:55:24.730Z,180
2017-05-20T06:56:05.282Z,190
2017-05-20T06:56:45.902Z,200
2017-05-20T06:57:26.554Z,200
2017-05-20T06:58:07.041Z,200
2017-05-20T06:58:48.608Z,195
2017-05-20T06:59:29.117Z,190
2017-05-20T07:00:10.748Z,180
2017-05-20T07:00:51.279Z,180
2017-05-20T07:01:31.872Z,180
2017-05-20T07:02:12.450Z,185
2017-05-20T07:02:52.972Z,185
2017-05-20T07:03:33.569Z,185
2017-05-20T07:04:14.157Z,185
2017-05-20T07:04:54.697Z,185
2017-05-20T07:05:36.326Z,185
2017-05-20T07:06:16.943Z,185
2017-05-20T07:06:57.510Z,185
2017-05-20T07:07:38.174Z,185
2017-05-20T07:08:19.757Z,185
2017-05-20T07:09:00.366Z,185
2017-05-20T07:09:40.907Z,185
2017-05-20T07:10:21.469Z,185
2017-05-20T07:11:02.018Z,185
2017-05-20T07:11:42.605Z,175
2017-05-20T07:12:23.268Z,175
2017-05-20T07:13:03.868Z,170
2017-05-20T07:13:44.522Z,165
2017-05-20T07:14:25.076Z,155
2017-05-20T07:15:05.633Z,150
2017-05-20T07:15:46.299Z,145
2017-05-20T07:16:26.952Z,140
2017-05-20T07:17:07.585Z,135
2017-05-20T07:17:48.129Z,135
2017-05-20T07:18:28.695Z,135
2017-05-20T07:19:09.233Z,130
2017-05-20T07:19:49.798Z,130
2017-05-20T07:20:30.461Z,125
2017-05-20T07:21:11.036Z,125
2017-05-20T07:21:51.565Z,125
2017-05-20T07:22:32.151Z,120
2017-05-20T07:23:12.747Z,120
2017-05-20T07:23:53.341Z,115
2017-05-20T07:24:33.852Z,110
2017-05-20T07:25:14.476Z,115
2017-05-20T07:25:55.045Z,110
2017-05-20T07:26:35.641Z,110
2017-05-20T07:27:16.200Z,110
2017-05-20T07:27:56.765Z,110
2017-05-20T07:28:37.355Z,110
2017-05-20T07:29:17.901Z,110
2017-05-20T07:29:58.477Z,110
2017-05-20T07:30:39.062Z,105
2017-05-20T07:31:19.658Z,105
2017-05-20T07:32:00.231Z,105
2017-05-20T07:32:40.896Z,105
2017-05-20T07:33:21.508Z,105
2017-05-20T07:34:02.071Z,105
2017-05-20T07:34:42.721Z,105
2017-05-20T07:35:23.243Z,105
2017-05-20T07:36:03.841Z,105
2017-05-20T07:36:44.367Z,105
2017-05-20T07:37:24.952Z,105
2017-05-20T07:38:05.608Z,110
2017-05-20T07:38:46.126Z,110
2017-05-20T07:39:26.676Z,110
2017-05-20T07:40:09.294Z,110
2017-05-20T07:40:49.915Z,110
2017-05-20T07:41:30.515Z,110
2017-05-20T07:42:11.073Z,110
2017-05-20T07:42:51.644Z,105
2017-05-20T07:43:32.275Z,105
2017-05-20T07:44:12.904Z,110
2017-05-20T07:44:53.435Z,110
2017-05-20T07:47:07.978Z,110
2017-05-20T07:47:48.561Z,110
2017-05-20T07:48:29.081Z,105
2017-05-20T07:49:09.664Z,110
2017-05-20T07:49:50.281Z,105
2017-05-20T07:50:30.807Z,105
2017-05-20T07:51:12.375Z,105
2017-05-20T07:51:52.890Z,105
2017-05-20T07:52:33.439Z,105
2017-05-20T07:53:14.050Z,105
2017-05-20T07:53:54.605Z,105
2017-05-20T07:54:35.123Z,105
2017-05-20T07:55:15.639Z,105
2017-05-20T07:55:56.190Z,105
2017-05-20T07:56:36.815Z,105
2017-05-20T07:57:17.454Z,105
2017-05-20T07:57:58.048Z,110
2017-05-20T07:58:38.660Z,110
2017-05-20T07:59:19.355Z,110
2017-05-20T07:59:59.976Z,105
2017-05-20T08:00:40.503Z,105
2017-05-20T08:01:21.444Z,105
2017-05-20T08:02:01.974Z,105
2017-05-20T08:02:42.597Z,105
2017-05-20T08:03:23.200Z,105
2017-05-20T08:04:04.806Z,105
2017-05-20T08:04:45.372Z,105
2017-05-20T08:05:25.882Z,105
2017-05-20T08:06:06.900Z,105
2017-05-20T08:06:47.730Z,105
2017-05-20T08:07:28.322Z,105
2017-05-20T08:08:08.885Z,105
2017-05-20T08:08:49.480Z,105
2017-05-20T08:09:30.050Z,105
2017-05-20T08:10:11.648Z,105
2017-05-20T08:10:52.193Z,105
2017-05-20T08:11:32.796Z,105
2017-05-20T08:12:13.373Z,110
2017-05-20T08:12:53.926Z,110
2017-05-20T08:13:34.503Z,110
2017-05-20T08:14:15.071Z,115
2017-05-20T08:14:55.689Z,120
2017-05-20T08:15:36.250Z,115
2017-05-20T08:16:16.883Z,115
2017-05-20T08:16:57.525Z,115
2017-05-20T08:17:38.082Z,115
2017-05-20T08:18:18.719Z,115
2017-05-20T08:18:59.296Z,115
2017-05-20T08:19:39.928Z,115
2017-05-20T08:20:20.689Z,110
2017-05-20T08:21:01.271Z,115
2017-05-20T08:21:41.922Z,115
2017-05-20T08:22:22.544Z,115
2017-05-20T08:23:03.076Z,115
2017-05-20T08:23:43.662Z,115
2017-05-20T08:24:24.338Z,115
2017-05-20T08:25:04.992Z,115
2017-05-20T08:25:45.611Z,115
2017-05-20T08:26:26.162Z,120
2017-05-20T08:27:06.712Z,115
2017-05-20T08:27:47.222Z,115
2017-05-20T08:28:27.742Z,120
2017-05-20T08:29:08.313Z,120
2017-05-20T08:29:48.906Z,105
2017-05-20T08:30:29.498Z,110
2017-05-20T08:31:10.154Z,125
2017-05-20T08:31:50.772Z,125
2017-05-20T08:32:32.367Z,125
2017-05-20T08:33:13.010Z,120
2017-05-20T08:33:53.653Z,120
2017-05-20T08:34:34.205Z,130
2017-05-20T08:35:14.750Z,125
2017-05-20T08:35:55.405Z,115
2017-05-20T08:36:35.990Z,110
2017-05-20T08:37:16.519Z,125
2017-05-20T08:37:57.121Z,125
2017-05-20T08:38:37.721Z,115
2017-05-20T08:39:18.301Z,115
2017-05-20T08:39:58.833Z,115
2017-05-20T08:40:39.410Z,120
2017-05-20T08:41:20.010Z,125
2017-05-20T08:42:00.606Z,150
2017-05-20T08:42:41.156Z,140
2017-05-20T08:43:21.740Z,140
2017-05-20T08:44:02.317Z,145
2017-05-20T08:44:44.958Z,145
2017-05-20T08:45:25.551Z,145
2017-05-20T08:46:06.094Z,140
2017-05-20T08:46:46.677Z,135
2017-05-20T08:47:28.244Z,130
2017-05-20T08:48:08.895Z,125
2017-05-20T08:48:49.548Z,120
2017-05-20T08:49:30.098Z,100
2017-05-20T08:50:11.676Z,115
2017-05-20T08:50:53.262Z,120
2017-05-20T08:51:33.797Z,120
2017-05-20T08:52:14.413Z,105
2017-05-20T08:52:55.004Z,125
2017-05-20T08:53:35.585Z,125
2017-05-20T08:54:16.167Z,130
2017-05-20T08:54:56.753Z,145
2017-05-20T08:55:37.308Z,140
2017-05-20T08:56:17.834Z,120
2017-05-20T08:56:59.387Z,120
2017-05-20T08:57:40.958Z,120
2017-05-20T08:58:21.590Z,135
2017-05-20T08:59:02.133Z,135
2017-05-20T08:59:42.694Z,140
2017-05-20T09:00:23.236Z,140
2017-05-20T09:01:03.784Z,145
2017-05-20T09:01:44.335Z,145
2017-05-20T09:02:24.890Z,150
2017-05-20T09:03:05.482Z,155
2017-05-20T09:03:46.012Z,160
2017-05-20T09:04:27.631Z,150
2017-05-20T09:05:08.162Z,150
2017-05-20T09:05:48.765Z,160
2017-05-20T09:06:30.387Z,180
2017-05-20T09:07:10.914Z,185
2017-05-20T09:07:51.511Z,190
2017-05-20T09:08:32.034Z,200
2017-05-20T09:09:12.658Z,215
2017-05-20T09:09:53.172Z,220
2017-05-20T09:10:33.812Z,215
2017-05-20T09:11:14.384Z,215
2017-05-20T09:11:55.023Z,215
2017-05-20T09:12:35.549Z,215
2017-05-20T09:13:16.120Z,220
2017-05-20T09:13:56.660Z,215
2017-05-20T09:14:37.259Z,205
2017-05-20T09:15:17.908Z,190
2017-05-20T09:15:58.458Z,210
2017-05-20T09:16:39.037Z,215
2017-05-20T09:17:19.555Z,230
2017-05-20T09:18:00.200Z,225
2017-05-20T09:18:41.386Z,210
2017-05-20T09:19:22.618Z,205
2017-05-20T09:20:03.649Z,200
2017-05-20T09:20:44.828Z,170
2017-05-20T09:21:25.704Z,175
2017-05-20T09:22:06.282Z,190
2017-05-20T09:22:46.879Z,210
2017-05-20T09:23:27.395Z,235
2017-05-20T09:24:08.165Z,245
2017-05-20T09:24:49.430Z,270
2017-05-20T09:25:30.762Z,260
2017-05-20T09:26:11.494Z,225
2017-05-20T09:26:52.396Z,215
2017-05-20T09:27:33.689Z,210
2017-05-20T09:28:14.327Z,190
2017-05-20T09:28:54.960Z,190
2017-05-20T09:29:35.528Z,190
2017-05-20T09:30:16.180Z,210
2017-05-20T09:30:56.825Z,230
2017-05-20T09:31:37.421Z,230
2017-05-20T09:32:17.939Z,220
2017-05-20T09:32:58.542Z,220
2017-05-20T09:33:39.151Z,225
2017-05-20T09:34:19.728Z,230
2017-05-20T09:35:00.279Z,245
2017-05-20T09:35:40.852Z,225
2017-05-20T09:36:21.444Z,205
2017-05-20T09:37:01.996Z,205
2017-05-20T09:37:42.637Z,240
2017-05-20T09:38:24.227Z,250
2017-05-20T09:39:05.801Z,260
2017-05-20T09:39:46.318Z,260
2017-05-20T09:40:26.882Z,245
2017-05-20T09:41:07.432Z,240
2017-05-20T09:41:48.135Z,245
2017-05-20T09:42:30.329Z,255
2017-05-20T09:43:10.898Z,255
2017-05-20T09:43:51.430Z,260
2017-05-20T09:44:31.979Z,245